sensor_id;sensor_type;location;lat;lon;timestamp;temperature;humidity
9666;DHT22;4871;52.004;5.924;2023-04-03T00:00:00;5.3;73.3
9666;DHT22;4871;52.004;5.924;2023-04-03T00:01:01;5.3;73.1
9666;DHT22;4871;52.004;5.924;2023-04-03T00:02:00;5.3;72.7
9666;DHT22;4871;52.004;5.924;2023-04-03T00:03:00;5.3;72.8
9666;DHT22;4871;52.004;5.924;2023-04-03T00:04:00;5.3;73.2
9666;DHT22;4871;52.004;5.924;2023-04-03T00:05:00;5.2;73.0
9666;DHT22;4871;52.004;5.924;2023-04-03T00:06:00;5.2;73.2
9666;DHT22;4871;52.004;5.924;2023-04-03T00:07:00;5.2;73.1
9666;DHT22;4871;52.004;5.924;2023-04-03T00:08:02;5.2;73.4
9666;DHT22;4871;52.004;5.924;2023-04-03T00:09:00;5.2;73.0
9666;DHT22;4871;52.004;5.924;2023-04-03T00:10:00;5.2;73.3
9666;DHT22;4871;52.004;5.924;2023-04-03T00:11:00;5.2;72.8
9666;DHT22;4871;52.004;5.924;2023-04-03T00:12:00;5.2;73.1
9666;DHT22;4871;52.004;5.924;2023-04-03T00:13:00;5.2;73.0
9666;DHT22;4871;52.004;5.924;2023-04-03T00:14:00;5.2;73.1
9666;DHT22;4871;52.004;5.924;2023-04-03T00:15:00;5.1;73.1
9666;DHT22;4871;52.004;5.924;2023-04-03T00:16:01;5.1;73.4
9666;DHT22;4871;52.004;5.924;2023-04-03T00:17:00;5.1;73.5
9666;DHT22;4871;52.004;5.924;2023-04-03T00:18:01;5.1;73.1
9666;DHT22;4871;52.004;5.924;2023-04-03T00:19:00;5.1;73.2
9666;DHT22;4871;52.004;5.924;2023-04-03T00:20:01;5.1;73.1
9666;DHT22;4871;52.004;5.924;2023-04-03T00:21:00;5.0;73.1
9666;DHT22;4871;52.004;5.924;2023-04-03T00:22:00;5.1;72.9
9666;DHT22;4871;52.004;5.924;2023-04-03T00:23:01;5.0;72.9
9666;DHT22;4871;52.004;5.924;2023-04-03T00:24:00;5.0;73.2
9666;DHT22;4871;52.004;5.924;2023-04-03T00:25:00;5.0;72.9
9666;DHT22;4871;52.004;5.924;2023-04-03T00:26:01;5.0;72.9
9666;DHT22;4871;52.004;5.924;2023-04-03T00:27:00;5.0;73.1
9666;DHT22;4871;52.004;5.924;2023-04-03T00:28:00;5.0;73.4
9666;DHT22;4871;52.004;5.924;2023-04-03T00:29:00;5.0;73.3
9666;DHT22;4871;52.004;5.924;2023-04-03T00:30:00;4.9;73.4
9666;DHT22;4871;52.004;5.924;2023-04-03T00:31:00;5.0;73.0
9666;DHT22;4871;52.004;5.924;2023-04-03T00:32:00;5.0;73.2
9666;DHT22;4871;52.004;5.924;2023-04-03T00:33:01;4.9;73.0
9666;DHT22;4871;52.004;5.924;2023-04-03T00:34:00;5.0;73.3
9666;DHT22;4871;52.004;5.924;2023-04-03T00:35:00;5.0;73.1
9666;DHT22;4871;52.004;5.924;2023-04-03T00:36:04;5.0;73.2
9666;DHT22;4871;52.004;5.924;2023-04-03T00:37:00;5.0;72.9
9666;DHT22;4871;52.004;5.924;2023-04-03T00:38:00;4.9;73.4
9666;DHT22;4871;52.004;5.924;2023-04-03T00:39:00;4.9;73.0
9666;DHT22;4871;52.004;5.924;2023-04-03T00:40:00;4.9;73.0
9666;DHT22;4871;52.004;5.924;2023-04-03T00:41:00;4.9;73.2
9666;DHT22;4871;52.004;5.924;2023-04-03T00:42:00;4.9;73.3
9666;DHT22;4871;52.004;5.924;2023-04-03T00:43:00;4.9;73.4
9666;DHT22;4871;52.004;5.924;2023-04-03T00:44:00;4.8;73.5
9666;DHT22;4871;52.004;5.924;2023-04-03T00:45:22;4.9;73.2
9666;DHT22;4871;52.004;5.924;2023-04-03T00:46:00;4.9;73.4
9666;DHT22;4871;52.004;5.924;2023-04-03T00:47:02;4.8;73.5
9666;DHT22;4871;52.004;5.924;2023-04-03T00:48:03;4.8;72.8
9666;DHT22;4871;52.004;5.924;2023-04-03T00:49:00;4.8;72.8
9666;DHT22;4871;52.004;5.924;2023-04-03T00:50:00;4.8;73.3
9666;DHT22;4871;52.004;5.924;2023-04-03T00:51:02;4.8;73.3
9666;DHT22;4871;52.004;5.924;2023-04-03T00:52:00;4.8;73.2
9666;DHT22;4871;52.004;5.924;2023-04-03T00:53:01;4.8;73.6
9666;DHT22;4871;52.004;5.924;2023-04-03T00:54:03;4.7;73.9
9666;DHT22;4871;52.004;5.924;2023-04-03T00:55:06;4.7;73.7
9666;DHT22;4871;52.004;5.924;2023-04-03T00:56:01;4.7;72.9
9666;DHT22;4871;52.004;5.924;2023-04-03T00:57:00;4.7;73.3
9666;DHT22;4871;52.004;5.924;2023-04-03T00:58:01;4.7;73.8
9666;DHT22;4871;52.004;5.924;2023-04-03T00:59:02;4.7;73.4
9666;DHT22;4871;52.004;5.924;2023-04-03T01:00:07;4.7;73.7
9666;DHT22;4871;52.004;5.924;2023-04-03T01:01:03;4.7;73.2
9666;DHT22;4871;52.004;5.924;2023-04-03T01:02:01;4.7;73.4
9666;DHT22;4871;52.004;5.924;2023-04-03T01:03:00;4.7;73.6
9666;DHT22;4871;52.004;5.924;2023-04-03T01:04:04;4.7;73.6
9666;DHT22;4871;52.004;5.924;2023-04-03T01:05:00;4.7;73.6
9666;DHT22;4871;52.004;5.924;2023-04-03T01:06:00;4.7;73.5
9666;DHT22;4871;52.004;5.924;2023-04-03T01:07:02;4.7;73.3
9666;DHT22;4871;52.004;5.924;2023-04-03T01:08:01;4.7;73.5
9666;DHT22;4871;52.004;5.924;2023-04-03T01:09:01;4.7;73.2
9666;DHT22;4871;52.004;5.924;2023-04-03T01:10:03;4.6;73.4
9666;DHT22;4871;52.004;5.924;2023-04-03T01:11:00;4.6;73.6
9666;DHT22;4871;52.004;5.924;2023-04-03T01:12:14;4.6;73.8
9666;DHT22;4871;52.004;5.924;2023-04-03T01:13:01;4.6;73.7
9666;DHT22;4871;52.004;5.924;2023-04-03T01:14:02;4.6;73.6
9666;DHT22;4871;52.004;5.924;2023-04-03T01:15:03;4.6;73.8
9666;DHT22;4871;52.004;5.924;2023-04-03T01:16:01;4.6;73.5
9666;DHT22;4871;52.004;5.924;2023-04-03T01:17:00;4.6;73.7
9666;DHT22;4871;52.004;5.924;2023-04-03T01:18:00;4.6;73.7
9666;DHT22;4871;52.004;5.924;2023-04-03T01:19:01;4.6;73.4
9666;DHT22;4871;52.004;5.924;2023-04-03T01:20:18;4.5;73.8
9666;DHT22;4871;52.004;5.924;2023-04-03T01:21:15;4.6;73.8
9666;DHT22;4871;52.004;5.924;2023-04-03T01:22:09;4.5;74.0
9666;DHT22;4871;52.004;5.924;2023-04-03T01:23:07;4.5;73.8
9666;DHT22;4871;52.004;5.924;2023-04-03T01:24:12;4.6;73.7
9666;DHT22;4871;52.004;5.924;2023-04-03T01:25:01;4.5;73.6
9666;DHT22;4871;52.004;5.924;2023-04-03T01:26:00;4.5;73.9
9666;DHT22;4871;52.004;5.924;2023-04-03T01:27:03;4.5;73.8
9666;DHT22;4871;52.004;5.924;2023-04-03T01:28:01;4.5;73.6
9666;DHT22;4871;52.004;5.924;2023-04-03T01:29:00;4.5;73.7
9666;DHT22;4871;52.004;5.924;2023-04-03T01:30:00;4.5;73.4
9666;DHT22;4871;52.004;5.924;2023-04-03T01:31:08;4.5;73.7
9666;DHT22;4871;52.004;5.924;2023-04-03T01:32:02;4.5;73.8
9666;DHT22;4871;52.004;5.924;2023-04-03T01:33:00;4.4;73.7
9666;DHT22;4871;52.004;5.924;2023-04-03T01:34:01;4.4;74.1
9666;DHT22;4871;52.004;5.924;2023-04-03T01:35:00;4.5;73.8
9666;DHT22;4871;52.004;5.924;2023-04-03T01:36:00;4.5;74.1
9666;DHT22;4871;52.004;5.924;2023-04-03T01:37:00;4.5;74.1
9666;DHT22;4871;52.004;5.924;2023-04-03T01:38:00;4.5;73.8
9666;DHT22;4871;52.004;5.924;2023-04-03T01:39:00;4.5;73.6
9666;DHT22;4871;52.004;5.924;2023-04-03T01:40:00;4.5;73.8
9666;DHT22;4871;52.004;5.924;2023-04-03T01:41:01;4.5;73.5
9666;DHT22;4871;52.004;5.924;2023-04-03T01:42:00;4.5;73.4
9666;DHT22;4871;52.004;5.924;2023-04-03T01:43:00;4.4;73.8
9666;DHT22;4871;52.004;5.924;2023-04-03T01:44:00;4.5;73.8
9666;DHT22;4871;52.004;5.924;2023-04-03T01:45:00;4.4;73.3
9666;DHT22;4871;52.004;5.924;2023-04-03T01:46:00;4.5;73.8
9666;DHT22;4871;52.004;5.924;2023-04-03T01:47:00;4.5;73.1
9666;DHT22;4871;52.004;5.924;2023-04-03T01:48:00;4.4;73.8
9666;DHT22;4871;52.004;5.924;2023-04-03T01:49:01;4.4;74.1
9666;DHT22;4871;52.004;5.924;2023-04-03T01:50:00;4.4;73.7
9666;DHT22;4871;52.004;5.924;2023-04-03T01:51:00;4.4;74.1
9666;DHT22;4871;52.004;5.924;2023-04-03T01:52:00;4.4;74.0
9666;DHT22;4871;52.004;5.924;2023-04-03T01:53:00;4.3;74.1
9666;DHT22;4871;52.004;5.924;2023-04-03T01:54:00;4.3;73.6
9666;DHT22;4871;52.004;5.924;2023-04-03T01:55:00;4.3;73.8
9666;DHT22;4871;52.004;5.924;2023-04-03T01:56:00;4.4;74.0
9666;DHT22;4871;52.004;5.924;2023-04-03T01:57:00;4.4;73.8
9666;DHT22;4871;52.004;5.924;2023-04-03T01:58:00;4.4;74.0
9666;DHT22;4871;52.004;5.924;2023-04-03T01:59:00;4.4;73.8
9666;DHT22;4871;52.004;5.924;2023-04-03T02:00:00;4.4;73.7
9666;DHT22;4871;52.004;5.924;2023-04-03T02:01:01;4.4;73.7
9666;DHT22;4871;52.004;5.924;2023-04-03T02:02:00;4.4;73.9
9666;DHT22;4871;52.004;5.924;2023-04-03T02:03:00;4.4;73.7
9666;DHT22;4871;52.004;5.924;2023-04-03T02:04:00;4.4;73.7
9666;DHT22;4871;52.004;5.924;2023-04-03T02:05:00;4.5;73.0
9666;DHT22;4871;52.004;5.924;2023-04-03T02:06:00;4.4;73.2
9666;DHT22;4871;52.004;5.924;2023-04-03T02:07:00;4.3;73.7
9666;DHT22;4871;52.004;5.924;2023-04-03T02:08:00;4.3;73.8
9666;DHT22;4871;52.004;5.924;2023-04-03T02:09:00;4.3;74.0
9666;DHT22;4871;52.004;5.924;2023-04-03T02:10:00;4.3;73.8
9666;DHT22;4871;52.004;5.924;2023-04-03T02:11:00;4.3;74.1
9666;DHT22;4871;52.004;5.924;2023-04-03T02:12:00;4.3;73.9
9666;DHT22;4871;52.004;5.924;2023-04-03T02:13:00;4.3;74.2
9666;DHT22;4871;52.004;5.924;2023-04-03T02:14:00;4.3;74.0
9666;DHT22;4871;52.004;5.924;2023-04-03T02:15:00;4.3;73.9
9666;DHT22;4871;52.004;5.924;2023-04-03T02:16:06;4.3;73.9
9666;DHT22;4871;52.004;5.924;2023-04-03T02:17:01;4.3;74.1
9666;DHT22;4871;52.004;5.924;2023-04-03T02:18:00;4.3;74.1
9666;DHT22;4871;52.004;5.924;2023-04-03T02:19:00;4.3;73.8
9666;DHT22;4871;52.004;5.924;2023-04-03T02:20:00;4.3;73.9
9666;DHT22;4871;52.004;5.924;2023-04-03T02:21:00;4.3;74.1
9666;DHT22;4871;52.004;5.924;2023-04-03T02:22:00;4.3;74.0
9666;DHT22;4871;52.004;5.924;2023-04-03T02:23:00;4.3;74.0
9666;DHT22;4871;52.004;5.924;2023-04-03T02:24:00;4.2;74.2
9666;DHT22;4871;52.004;5.924;2023-04-03T02:25:00;4.3;73.7
9666;DHT22;4871;52.004;5.924;2023-04-03T02:26:04;4.3;73.9
9666;DHT22;4871;52.004;5.924;2023-04-03T02:27:00;4.3;74.0
9666;DHT22;4871;52.004;5.924;2023-04-03T02:28:00;4.2;73.9
9666;DHT22;4871;52.004;5.924;2023-04-03T02:29:00;4.3;73.6
9666;DHT22;4871;52.004;5.924;2023-04-03T02:30:00;4.3;73.8
9666;DHT22;4871;52.004;5.924;2023-04-03T02:31:00;4.2;73.8
9666;DHT22;4871;52.004;5.924;2023-04-03T02:32:00;4.2;74.1
9666;DHT22;4871;52.004;5.924;2023-04-03T02:33:00;4.2;73.5
9666;DHT22;4871;52.004;5.924;2023-04-03T02:34:00;4.2;74.0
9666;DHT22;4871;52.004;5.924;2023-04-03T02:35:00;4.2;74.1
9666;DHT22;4871;52.004;5.924;2023-04-03T02:36:00;4.2;74.1
9666;DHT22;4871;52.004;5.924;2023-04-03T02:37:00;4.2;74.3
9666;DHT22;4871;52.004;5.924;2023-04-03T02:38:00;4.2;74.2
9666;DHT22;4871;52.004;5.924;2023-04-03T02:39:00;4.2;74.4
9666;DHT22;4871;52.004;5.924;2023-04-03T02:40:00;4.2;73.9
9666;DHT22;4871;52.004;5.924;2023-04-03T02:41:01;4.2;74.0
9666;DHT22;4871;52.004;5.924;2023-04-03T02:42:00;4.2;73.9
9666;DHT22;4871;52.004;5.924;2023-04-03T02:43:00;4.2;74.0
9666;DHT22;4871;52.004;5.924;2023-04-03T02:44:01;4.2;73.8
9666;DHT22;4871;52.004;5.924;2023-04-03T02:45:00;4.2;73.8
9666;DHT22;4871;52.004;5.924;2023-04-03T02:46:00;4.2;74.0
9666;DHT22;4871;52.004;5.924;2023-04-03T02:47:00;4.2;74.0
9666;DHT22;4871;52.004;5.924;2023-04-03T02:48:00;4.2;74.0
9666;DHT22;4871;52.004;5.924;2023-04-03T02:49:00;4.2;73.9
9666;DHT22;4871;52.004;5.924;2023-04-03T02:50:00;4.2;73.5
9666;DHT22;4871;52.004;5.924;2023-04-03T02:51:01;4.2;73.9
9666;DHT22;4871;52.004;5.924;2023-04-03T02:52:00;4.2;74.1
9666;DHT22;4871;52.004;5.924;2023-04-03T02:53:00;4.1;73.8
9666;DHT22;4871;52.004;5.924;2023-04-03T02:54:00;4.1;73.8
9666;DHT22;4871;52.004;5.924;2023-04-03T02:55:00;4.1;74.4
9666;DHT22;4871;52.004;5.924;2023-04-03T02:56:00;4.1;73.8
9666;DHT22;4871;52.004;5.924;2023-04-03T02:57:00;4.2;73.8
9666;DHT22;4871;52.004;5.924;2023-04-03T02:58:00;4.1;74.0
9666;DHT22;4871;52.004;5.924;2023-04-03T02:59:00;4.1;73.9
9666;DHT22;4871;52.004;5.924;2023-04-03T03:00:00;4.1;73.9
9666;DHT22;4871;52.004;5.924;2023-04-03T03:01:01;4.1;74.0
9666;DHT22;4871;52.004;5.924;2023-04-03T03:02:00;4.1;74.0
9666;DHT22;4871;52.004;5.924;2023-04-03T03:03:00;4.1;74.3
9666;DHT22;4871;52.004;5.924;2023-04-03T03:04:00;4.1;73.9
9666;DHT22;4871;52.004;5.924;2023-04-03T03:05:01;4.2;73.9
9666;DHT22;4871;52.004;5.924;2023-04-03T03:06:02;4.1;74.0
9666;DHT22;4871;52.004;5.924;2023-04-03T03:07:00;4.1;74.2
9666;DHT22;4871;52.004;5.924;2023-04-03T03:08:00;4.1;73.9
9666;DHT22;4871;52.004;5.924;2023-04-03T03:09:00;4.1;74.1
9666;DHT22;4871;52.004;5.924;2023-04-03T03:10:00;4.0;73.9
9666;DHT22;4871;52.004;5.924;2023-04-03T03:11:00;4.0;74.6
9666;DHT22;4871;52.004;5.924;2023-04-03T03:12:00;4.0;74.1
9666;DHT22;4871;52.004;5.924;2023-04-03T03:13:01;4.1;74.0
9666;DHT22;4871;52.004;5.924;2023-04-03T03:14:00;4.0;74.1
9666;DHT22;4871;52.004;5.924;2023-04-03T03:15:00;4.1;74.2
9666;DHT22;4871;52.004;5.924;2023-04-03T03:16:01;4.0;74.2
9666;DHT22;4871;52.004;5.924;2023-04-03T03:17:00;4.0;74.3
9666;DHT22;4871;52.004;5.924;2023-04-03T03:18:00;4.0;74.2
9666;DHT22;4871;52.004;5.924;2023-04-03T03:19:00;4.0;73.8
9666;DHT22;4871;52.004;5.924;2023-04-03T03:20:00;4.0;74.5
9666;DHT22;4871;52.004;5.924;2023-04-03T03:21:02;4.0;74.2
9666;DHT22;4871;52.004;5.924;2023-04-03T03:22:01;4.0;74.0
9666;DHT22;4871;52.004;5.924;2023-04-03T03:23:00;4.0;74.1
9666;DHT22;4871;52.004;5.924;2023-04-03T03:24:00;4.0;74.0
9666;DHT22;4871;52.004;5.924;2023-04-03T03:25:01;4.0;74.2
9666;DHT22;4871;52.004;5.924;2023-04-03T03:26:03;4.0;74.2
9666;DHT22;4871;52.004;5.924;2023-04-03T03:27:00;4.0;74.0
9666;DHT22;4871;52.004;5.924;2023-04-03T03:28:00;4.0;74.2
9666;DHT22;4871;52.004;5.924;2023-04-03T03:29:00;4.0;74.0
9666;DHT22;4871;52.004;5.924;2023-04-03T03:30:00;4.0;74.1
9666;DHT22;4871;52.004;5.924;2023-04-03T03:31:00;4.0;74.0
9666;DHT22;4871;52.004;5.924;2023-04-03T03:32:00;4.0;73.8
9666;DHT22;4871;52.004;5.924;2023-04-03T03:33:00;4.0;74.0
9666;DHT22;4871;52.004;5.924;2023-04-03T03:34:00;4.0;73.9
9666;DHT22;4871;52.004;5.924;2023-04-03T03:35:00;4.0;74.1
9666;DHT22;4871;52.004;5.924;2023-04-03T03:36:00;4.0;73.9
9666;DHT22;4871;52.004;5.924;2023-04-03T03:37:00;3.9;74.2
9666;DHT22;4871;52.004;5.924;2023-04-03T03:38:00;3.9;74.2
9666;DHT22;4871;52.004;5.924;2023-04-03T03:39:00;3.9;74.3
9666;DHT22;4871;52.004;5.924;2023-04-03T03:40:00;3.9;74.0
9666;DHT22;4871;52.004;5.924;2023-04-03T03:41:01;3.9;74.2
9666;DHT22;4871;52.004;5.924;2023-04-03T03:42:00;3.9;74.0
9666;DHT22;4871;52.004;5.924;2023-04-03T03:43:00;3.8;74.3
9666;DHT22;4871;52.004;5.924;2023-04-03T03:44:00;3.9;74.0
9666;DHT22;4871;52.004;5.924;2023-04-03T03:45:00;3.8;74.0
9666;DHT22;4871;52.004;5.924;2023-04-03T03:46:00;3.8;74.6
9666;DHT22;4871;52.004;5.924;2023-04-03T03:47:00;3.8;74.3
9666;DHT22;4871;52.004;5.924;2023-04-03T03:48:00;3.8;73.9
9666;DHT22;4871;52.004;5.924;2023-04-03T03:49:00;3.8;73.8
9666;DHT22;4871;52.004;5.924;2023-04-03T03:50:01;3.8;74.3
9666;DHT22;4871;52.004;5.924;2023-04-03T03:51:00;3.8;74.1
9666;DHT22;4871;52.004;5.924;2023-04-03T03:52:00;3.8;73.9
9666;DHT22;4871;52.004;5.924;2023-04-03T03:53:00;3.8;73.7
9666;DHT22;4871;52.004;5.924;2023-04-03T03:54:00;3.8;74.1
9666;DHT22;4871;52.004;5.924;2023-04-03T03:55:00;3.8;73.9
9666;DHT22;4871;52.004;5.924;2023-04-03T03:56:01;3.7;74.4
9666;DHT22;4871;52.004;5.924;2023-04-03T03:57:00;3.8;73.8
9666;DHT22;4871;52.004;5.924;2023-04-03T03:58:01;3.8;73.9
9666;DHT22;4871;52.004;5.924;2023-04-03T03:59:00;3.8;74.0
9666;DHT22;4871;52.004;5.924;2023-04-03T04:00:00;3.7;74.3
9666;DHT22;4871;52.004;5.924;2023-04-03T04:01:01;3.7;73.9
9666;DHT22;4871;52.004;5.924;2023-04-03T04:02:00;3.8;73.9
9666;DHT22;4871;52.004;5.924;2023-04-03T04:03:00;3.8;74.1
9666;DHT22;4871;52.004;5.924;2023-04-03T04:04:00;3.8;73.8
9666;DHT22;4871;52.004;5.924;2023-04-03T04:05:00;3.7;74.2
9666;DHT22;4871;52.004;5.924;2023-04-03T04:06:00;3.7;74.1
9666;DHT22;4871;52.004;5.924;2023-04-03T04:07:00;3.7;74.3
9666;DHT22;4871;52.004;5.924;2023-04-03T04:08:00;3.7;74.0
9666;DHT22;4871;52.004;5.924;2023-04-03T04:09:01;3.7;74.0
9666;DHT22;4871;52.004;5.924;2023-04-03T04:10:00;3.7;74.4
9666;DHT22;4871;52.004;5.924;2023-04-03T04:11:00;3.6;74.5
9666;DHT22;4871;52.004;5.924;2023-04-03T04:12:00;3.6;74.3
9666;DHT22;4871;52.004;5.924;2023-04-03T04:13:00;3.6;73.9
9666;DHT22;4871;52.004;5.924;2023-04-03T04:14:00;3.6;74.0
9666;DHT22;4871;52.004;5.924;2023-04-03T04:15:00;3.6;74.0
9666;DHT22;4871;52.004;5.924;2023-04-03T04:16:00;3.6;74.0
9666;DHT22;4871;52.004;5.924;2023-04-03T04:17:02;3.6;74.3
9666;DHT22;4871;52.004;5.924;2023-04-03T04:18:00;3.6;74.5
9666;DHT22;4871;52.004;5.924;2023-04-03T04:19:00;3.6;74.2
9666;DHT22;4871;52.004;5.924;2023-04-03T04:20:00;3.6;74.3
9666;DHT22;4871;52.004;5.924;2023-04-03T04:21:00;3.6;74.2
9666;DHT22;4871;52.004;5.924;2023-04-03T04:22:00;3.6;73.9
9666;DHT22;4871;52.004;5.924;2023-04-03T04:23:00;3.6;74.2
9666;DHT22;4871;52.004;5.924;2023-04-03T04:24:00;3.6;74.1
9666;DHT22;4871;52.004;5.924;2023-04-03T04:25:00;3.6;74.3
9666;DHT22;4871;52.004;5.924;2023-04-03T04:26:00;3.5;74.2
9666;DHT22;4871;52.004;5.924;2023-04-03T04:27:00;3.5;74.2
9666;DHT22;4871;52.004;5.924;2023-04-03T04:28:00;3.6;73.8
9666;DHT22;4871;52.004;5.924;2023-04-03T04:29:00;3.5;74.2
9666;DHT22;4871;52.004;5.924;2023-04-03T04:30:01;3.5;74.6
9666;DHT22;4871;52.004;5.924;2023-04-03T04:31:00;3.5;74.1
9666;DHT22;4871;52.004;5.924;2023-04-03T04:32:00;3.5;74.4
9666;DHT22;4871;52.004;5.924;2023-04-03T04:33:01;3.4;74.4
9666;DHT22;4871;52.004;5.924;2023-04-03T04:34:00;3.5;74.3
9666;DHT22;4871;52.004;5.924;2023-04-03T04:35:01;3.4;74.2
9666;DHT22;4871;52.004;5.924;2023-04-03T04:36:00;3.5;74.5
9666;DHT22;4871;52.004;5.924;2023-04-03T04:37:00;3.4;74.3
9666;DHT22;4871;52.004;5.924;2023-04-03T04:38:00;3.4;74.1
9666;DHT22;4871;52.004;5.924;2023-04-03T04:39:00;3.4;74.3
9666;DHT22;4871;52.004;5.924;2023-04-03T04:40:00;3.4;74.8
9666;DHT22;4871;52.004;5.924;2023-04-03T04:41:00;3.4;74.4
9666;DHT22;4871;52.004;5.924;2023-04-03T04:42:00;3.4;74.5
9666;DHT22;4871;52.004;5.924;2023-04-03T04:43:00;3.4;74.2
9666;DHT22;4871;52.004;5.924;2023-04-03T04:44:00;3.4;74.1
9666;DHT22;4871;52.004;5.924;2023-04-03T04:45:00;3.4;74.3
9666;DHT22;4871;52.004;5.924;2023-04-03T04:46:02;3.4;74.2
9666;DHT22;4871;52.004;5.924;2023-04-03T04:47:00;3.3;74.5
9666;DHT22;4871;52.004;5.924;2023-04-03T04:48:00;3.3;74.6
9666;DHT22;4871;52.004;5.924;2023-04-03T04:49:00;3.4;74.3
9666;DHT22;4871;52.004;5.924;2023-04-03T04:50:00;3.3;74.0
9666;DHT22;4871;52.004;5.924;2023-04-03T04:51:01;3.3;74.1
9666;DHT22;4871;52.004;5.924;2023-04-03T04:52:00;3.4;74.4
9666;DHT22;4871;52.004;5.924;2023-04-03T04:53:00;3.4;74.3
9666;DHT22;4871;52.004;5.924;2023-04-03T04:54:00;3.4;74.2
9666;DHT22;4871;52.004;5.924;2023-04-03T04:55:00;3.4;73.9
9666;DHT22;4871;52.004;5.924;2023-04-03T04:56:00;3.4;74.0
9666;DHT22;4871;52.004;5.924;2023-04-03T04:57:00;3.3;74.1
9666;DHT22;4871;52.004;5.924;2023-04-03T04:58:00;3.3;74.6
9666;DHT22;4871;52.004;5.924;2023-04-03T04:59:00;3.2;74.5
9666;DHT22;4871;52.004;5.924;2023-04-03T05:00:00;3.3;74.7
9666;DHT22;4871;52.004;5.924;2023-04-03T05:01:01;3.3;74.4
9666;DHT22;4871;52.004;5.924;2023-04-03T05:02:00;3.3;74.2
9666;DHT22;4871;52.004;5.924;2023-04-03T05:03:00;3.3;74.1
9666;DHT22;4871;52.004;5.924;2023-04-03T05:04:00;3.3;74.2
9666;DHT22;4871;52.004;5.924;2023-04-03T05:05:00;3.3;74.2
9666;DHT22;4871;52.004;5.924;2023-04-03T05:06:00;3.3;74.2
9666;DHT22;4871;52.004;5.924;2023-04-03T05:07:00;3.2;74.1
9666;DHT22;4871;52.004;5.924;2023-04-03T05:08:00;3.2;74.1
9666;DHT22;4871;52.004;5.924;2023-04-03T05:09:00;3.2;74.0
9666;DHT22;4871;52.004;5.924;2023-04-03T05:10:00;3.2;74.2
9666;DHT22;4871;52.004;5.924;2023-04-03T05:11:00;3.3;74.1
9666;DHT22;4871;52.004;5.924;2023-04-03T05:12:00;3.3;74.2
9666;DHT22;4871;52.004;5.924;2023-04-03T05:13:00;3.2;74.6
9666;DHT22;4871;52.004;5.924;2023-04-03T05:14:00;3.2;74.3
9666;DHT22;4871;52.004;5.924;2023-04-03T05:15:00;3.2;74.3
9666;DHT22;4871;52.004;5.924;2023-04-03T05:16:00;3.2;74.3
9666;DHT22;4871;52.004;5.924;2023-04-03T05:17:00;3.2;74.5
9666;DHT22;4871;52.004;5.924;2023-04-03T05:18:00;3.1;74.5
9666;DHT22;4871;52.004;5.924;2023-04-03T05:19:00;3.2;74.2
9666;DHT22;4871;52.004;5.924;2023-04-03T05:20:01;3.2;74.2
9666;DHT22;4871;52.004;5.924;2023-04-03T05:21:00;3.1;74.4
9666;DHT22;4871;52.004;5.924;2023-04-03T05:22:00;3.1;74.0
9666;DHT22;4871;52.004;5.924;2023-04-03T05:23:01;3.1;74.4
9666;DHT22;4871;52.004;5.924;2023-04-03T05:24:03;3.1;74.3
9666;DHT22;4871;52.004;5.924;2023-04-03T05:25:00;3.1;74.4
9666;DHT22;4871;52.004;5.924;2023-04-03T05:26:00;3.1;73.7
9666;DHT22;4871;52.004;5.924;2023-04-03T05:27:00;3.1;74.4
9666;DHT22;4871;52.004;5.924;2023-04-03T05:28:00;3.1;74.3
9666;DHT22;4871;52.004;5.924;2023-04-03T05:29:00;3.1;74.2
9666;DHT22;4871;52.004;5.924;2023-04-03T05:30:00;3.1;74.3
9666;DHT22;4871;52.004;5.924;2023-04-03T05:31:00;3.1;74.5
9666;DHT22;4871;52.004;5.924;2023-04-03T05:32:00;3.1;74.3
9666;DHT22;4871;52.004;5.924;2023-04-03T05:33:00;3.1;74.3
9666;DHT22;4871;52.004;5.924;2023-04-03T05:34:01;3.1;74.3
9666;DHT22;4871;52.004;5.924;2023-04-03T05:35:00;3.1;73.9
9666;DHT22;4871;52.004;5.924;2023-04-03T05:36:02;3.1;74.3
9666;DHT22;4871;52.004;5.924;2023-04-03T05:37:01;3.1;74.2
9666;DHT22;4871;52.004;5.924;2023-04-03T05:38:00;3.1;74.3
9666;DHT22;4871;52.004;5.924;2023-04-03T05:39:00;3.1;74.4
9666;DHT22;4871;52.004;5.924;2023-04-03T05:40:00;3.1;74.1
9666;DHT22;4871;52.004;5.924;2023-04-03T05:41:00;3.1;73.9
9666;DHT22;4871;52.004;5.924;2023-04-03T05:42:00;3.1;74.4
9666;DHT22;4871;52.004;5.924;2023-04-03T05:43:00;3.1;74.4
9666;DHT22;4871;52.004;5.924;2023-04-03T05:44:00;3.1;74.3
9666;DHT22;4871;52.004;5.924;2023-04-03T05:45:00;3.1;74.0
9666;DHT22;4871;52.004;5.924;2023-04-03T05:46:00;3.1;74.6
9666;DHT22;4871;52.004;5.924;2023-04-03T05:47:00;3.1;74.1
9666;DHT22;4871;52.004;5.924;2023-04-03T05:48:00;3.1;74.0
9666;DHT22;4871;52.004;5.924;2023-04-03T05:49:00;3.1;73.6
9666;DHT22;4871;52.004;5.924;2023-04-03T05:50:00;3.1;74.1
9666;DHT22;4871;52.004;5.924;2023-04-03T05:51:00;3.0;74.1
9666;DHT22;4871;52.004;5.924;2023-04-03T05:52:01;3.0;74.3
9666;DHT22;4871;52.004;5.924;2023-04-03T05:53:02;3.1;74.4
9666;DHT22;4871;52.004;5.924;2023-04-03T05:54:06;3.0;73.9
9666;DHT22;4871;52.004;5.924;2023-04-03T05:55:00;3.0;74.1
9666;DHT22;4871;52.004;5.924;2023-04-03T05:56:00;3.1;74.0
9666;DHT22;4871;52.004;5.924;2023-04-03T05:57:00;3.0;74.1
9666;DHT22;4871;52.004;5.924;2023-04-03T05:58:00;3.0;74.2
9666;DHT22;4871;52.004;5.924;2023-04-03T05:59:00;3.0;74.6
9666;DHT22;4871;52.004;5.924;2023-04-03T06:00:00;3.0;74.3
9666;DHT22;4871;52.004;5.924;2023-04-03T06:01:01;3.0;74.6
9666;DHT22;4871;52.004;5.924;2023-04-03T06:02:01;3.1;74.2
9666;DHT22;4871;52.004;5.924;2023-04-03T06:03:00;3.0;74.4
9666;DHT22;4871;52.004;5.924;2023-04-03T06:04:00;3.0;74.5
9666;DHT22;4871;52.004;5.924;2023-04-03T06:05:01;3.0;74.7
9666;DHT22;4871;52.004;5.924;2023-04-03T06:06:03;3.0;74.0
9666;DHT22;4871;52.004;5.924;2023-04-03T06:07:00;3.0;74.1
9666;DHT22;4871;52.004;5.924;2023-04-03T06:08:00;3.1;74.2
9666;DHT22;4871;52.004;5.924;2023-04-03T06:09:00;3.1;74.3
9666;DHT22;4871;52.004;5.924;2023-04-03T06:10:02;3.1;74.4
9666;DHT22;4871;52.004;5.924;2023-04-03T06:11:02;3.1;73.9
9666;DHT22;4871;52.004;5.924;2023-04-03T06:12:01;3.1;74.1
9666;DHT22;4871;52.004;5.924;2023-04-03T06:13:00;3.2;74.1
9666;DHT22;4871;52.004;5.924;2023-04-03T06:14:00;3.1;74.1
9666;DHT22;4871;52.004;5.924;2023-04-03T06:15:01;3.2;74.2
9666;DHT22;4871;52.004;5.924;2023-04-03T06:16:01;3.2;73.8
9666;DHT22;4871;52.004;5.924;2023-04-03T06:17:02;3.2;74.1
9666;DHT22;4871;52.004;5.924;2023-04-03T06:18:01;3.2;74.2
9666;DHT22;4871;52.004;5.924;2023-04-03T06:19:00;3.2;73.9
9666;DHT22;4871;52.004;5.924;2023-04-03T06:20:00;3.3;73.9
9666;DHT22;4871;52.004;5.924;2023-04-03T06:21:02;3.3;73.7
9666;DHT22;4871;52.004;5.924;2023-04-03T06:22:00;3.2;73.6
9666;DHT22;4871;52.004;5.924;2023-04-03T06:23:00;3.2;73.9
9666;DHT22;4871;52.004;5.924;2023-04-03T06:24:01;3.3;73.9
9666;DHT22;4871;52.004;5.924;2023-04-03T06:25:00;3.3;73.9
9666;DHT22;4871;52.004;5.924;2023-04-03T06:26:00;3.3;74.2
9666;DHT22;4871;52.004;5.924;2023-04-03T06:27:00;3.3;74.1
9666;DHT22;4871;52.004;5.924;2023-04-03T06:28:00;3.3;73.7
9666;DHT22;4871;52.004;5.924;2023-04-03T06:29:00;3.4;74.1
9666;DHT22;4871;52.004;5.924;2023-04-03T06:30:00;3.4;73.9
9666;DHT22;4871;52.004;5.924;2023-04-03T06:31:00;3.4;74.2
9666;DHT22;4871;52.004;5.924;2023-04-03T06:32:00;3.4;73.7
9666;DHT22;4871;52.004;5.924;2023-04-03T06:33:00;3.5;73.8
9666;DHT22;4871;52.004;5.924;2023-04-03T06:34:01;3.5;74.1
9666;DHT22;4871;52.004;5.924;2023-04-03T06:35:00;3.5;73.8
9666;DHT22;4871;52.004;5.924;2023-04-03T06:36:04;3.5;74.0
9666;DHT22;4871;52.004;5.924;2023-04-03T06:37:00;3.6;74.4
9666;DHT22;4871;52.004;5.924;2023-04-03T06:38:01;3.6;74.2
9666;DHT22;4871;52.004;5.924;2023-04-03T06:39:01;3.7;73.9
9666;DHT22;4871;52.004;5.924;2023-04-03T06:40:00;3.7;74.0
9666;DHT22;4871;52.004;5.924;2023-04-03T06:41:00;3.7;73.8
9666;DHT22;4871;52.004;5.924;2023-04-03T06:42:00;3.8;74.1
9666;DHT22;4871;52.004;5.924;2023-04-03T06:43:00;3.8;73.7
9666;DHT22;4871;52.004;5.924;2023-04-03T06:44:00;3.8;74.4
9666;DHT22;4871;52.004;5.924;2023-04-03T06:45:00;3.9;73.1
9666;DHT22;4871;52.004;5.924;2023-04-03T06:46:00;3.9;74.6
9666;DHT22;4871;52.004;5.924;2023-04-03T06:47:00;4.0;74.1
9666;DHT22;4871;52.004;5.924;2023-04-03T06:48:01;4.1;73.5
9666;DHT22;4871;52.004;5.924;2023-04-03T06:49:00;4.1;73.2
9666;DHT22;4871;52.004;5.924;2023-04-03T06:50:00;4.1;74.6
9666;DHT22;4871;52.004;5.924;2023-04-03T06:51:00;4.2;73.6